createdAt,value
2023-07-27T00:02:18.825Z,100297.94
2023-07-27T00:04:50.339Z,100284.53
2023-07-27T00:07:21.776Z,100294.00
2023-07-27T00:09:53.176Z,100301.84
2023-07-27T00:12:24.664Z,100215.47
2023-07-27T00:14:56.405Z,100300.97
2023-07-27T00:17:27.880Z,100228.72
2023-07-27T00:19:59.285Z,100261.94
2023-07-27T00:22:30.753Z,100280.25
2023-07-27T00:25:02.135Z,100222.03
2023-07-27T00:27:33.513Z,100290.41
2023-07-27T00:30:05.496Z,100300.22
2023-07-27T00:32:36.960Z,100216.94
2023-07-27T00:35:08.553Z,100254.63
2023-07-27T00:37:39.954Z,100300.31
2023-07-27T00:40:11.804Z,100282.16
2023-07-27T00:42:43.155Z,100205.81
2023-07-27T00:45:14.637Z,100243.44
2023-07-27T00:47:46.332Z,100242.75
2023-07-27T00:50:17.786Z,100273.47
2023-07-27T00:52:49.431Z,100285.25
2023-07-27T00:55:20.874Z,100261.69
2023-07-27T00:57:52.655Z,100286.22
2023-07-27T01:00:24.084Z,100275.84
2023-07-27T01:02:55.588Z,100264.63
2023-07-27T01:05:27.561Z,100258.63
2023-07-27T01:07:59.485Z,100266.66
2023-07-27T01:10:38.027Z,100228.47
2023-07-27T01:13:23.986Z,100258.09
2023-07-27T01:16:05.823Z,100253.88
2023-07-27T01:18:44.412Z,100209.66
2023-07-27T01:21:20.356Z,100244.53
2023-07-27T01:24:29.491Z,100246.22
2023-07-27T01:27:20.880Z,100255.25
2023-07-27T01:30:25.779Z,100241.31
2023-07-27T01:33:01.871Z,100240.69
2023-07-27T01:35:36.883Z,100243.25
2023-07-27T01:38:11.509Z,100231.09
2023-07-27T01:40:43.724Z,100222.44
2023-07-27T01:43:16.487Z,100177.28
2023-07-27T01:45:49.125Z,100147.69
2023-07-27T01:48:22.946Z,100209.59
2023-07-27T01:50:56.656Z,100213.16
2023-07-27T01:53:30.881Z,100221.06
2023-07-27T01:56:05.443Z,100182.63
2023-07-27T01:58:38.741Z,100213.94
2023-07-27T02:01:10.362Z,100140.88
2023-07-27T02:03:42.094Z,100193.94
2023-07-27T02:06:13.576Z,100192.13
2023-07-27T02:08:44.991Z,100182.41
2023-07-27T02:11:19.943Z,100179.00
2023-07-27T02:13:56.589Z,100187.72
2023-07-27T02:16:33.491Z,100196.34
2023-07-27T02:19:07.094Z,100191.28
2023-07-27T02:21:39.589Z,100189.50
2023-07-27T02:24:11.221Z,100190.50
2023-07-27T02:26:43.386Z,100184.25
2023-07-27T02:29:14.726Z,100179.94
2023-07-27T02:31:46.147Z,100186.97
2023-07-27T02:34:19.942Z,100150.31
2023-07-27T02:36:51.296Z,100186.84
2023-07-27T02:39:22.807Z,100095.38
2023-07-27T02:41:54.169Z,100184.97
2023-07-27T02:44:25.562Z,100168.47
2023-07-27T02:46:56.953Z,100179.75
2023-07-27T02:49:28.354Z,100168.47
2023-07-27T02:52:00.036Z,100179.72
2023-07-27T02:54:31.445Z,100092.72
2023-07-27T02:57:02.959Z,100171.19
2023-07-27T02:59:34.359Z,100170.44
2023-07-27T03:02:06.222Z,100104.28
2023-07-27T03:04:37.690Z,100177.38
2023-07-27T03:07:10.123Z,100182.50
2023-07-27T03:09:41.468Z,100160.56
2023-07-27T03:12:13.117Z,100127.13
2023-07-27T03:14:44.619Z,100156.53
2023-07-27T03:17:16.027Z,100179.00
2023-07-27T03:19:47.520Z,100169.03
2023-07-27T03:22:18.963Z,100167.63
2023-07-27T03:24:50.368Z,100176.81
2023-07-27T03:27:21.768Z,100161.50
2023-07-27T03:29:53.200Z,100169.88
2023-07-27T03:32:24.613Z,100086.88
2023-07-27T03:34:55.987Z,100161.19
2023-07-27T03:37:27.427Z,100084.47
2023-07-27T03:39:58.767Z,100150.78
2023-07-27T03:42:30.160Z,100141.81
2023-07-27T03:45:01.545Z,100121.44
2023-07-27T03:47:33.056Z,100149.69
2023-07-27T03:50:05.127Z,100145.13
2023-07-27T03:52:36.831Z,100094.94
2023-07-27T03:55:08.545Z,100140.88
2023-07-27T03:57:40.414Z,100114.34
2023-07-27T04:00:12.548Z,100134.91
2023-07-27T04:02:43.979Z,100124.34
2023-07-27T04:05:15.536Z,100114.75
2023-07-27T04:07:50.636Z,100130.19
2023-07-27T04:10:22.088Z,100114.56
2023-07-27T04:12:53.582Z,100060.66
2023-07-27T04:15:24.939Z,100104.66
2023-07-27T04:17:56.430Z,100108.00
2023-07-27T04:20:27.852Z,100121.44
2023-07-27T04:22:59.230Z,100049.81
2023-07-27T04:25:30.679Z,100108.16
2023-07-27T04:28:02.042Z,100064.00
2023-07-27T04:30:33.451Z,100104.50
2023-07-27T04:33:04.951Z,100059.03
2023-07-27T04:35:36.327Z,100102.56
2023-07-27T04:38:07.692Z,100107.75
2023-07-27T04:40:39.102Z,100097.88
2023-07-27T04:43:10.622Z,100090.56
2023-07-27T04:45:42.051Z,100097.22
2023-07-27T04:48:13.423Z,100078.94
2023-07-27T04:50:44.830Z,100096.19
2023-07-27T04:53:16.217Z,100104.88
2023-07-27T04:55:47.852Z,100099.16
2023-07-27T04:58:19.238Z,100096.88
2023-07-27T05:00:55.044Z,100074.63
2023-07-27T05:03:26.637Z,100014.63
2023-07-27T05:05:57.961Z,100082.94
2023-07-27T05:08:30.522Z,100072.25
2023-07-27T05:11:07.369Z,100071.06
2023-07-27T05:13:38.770Z,100068.38
2023-07-27T05:16:10.226Z,100058.38
2023-07-27T05:18:41.657Z,100077.31
2023-07-27T05:21:14.566Z,100044.88
2023-07-27T05:23:46.410Z,100009.91
2023-07-27T05:26:17.716Z,100067.94
2023-07-27T05:28:49.118Z,100078.56
2023-07-27T05:31:20.515Z,100027.19
2023-07-27T05:33:52.030Z,100060.59
2023-07-27T05:36:23.416Z,100070.47
2023-07-27T05:38:55.606Z,100039.72
2023-07-27T05:41:27.006Z,100065.50
2023-07-27T05:43:58.392Z,100043.59
2023-07-27T05:46:29.748Z,100005.03
2023-07-27T05:49:01.139Z,100004.56
2023-07-27T05:51:32.479Z,100070.59
2023-07-27T05:54:04.154Z,100066.44
2023-07-27T05:56:35.870Z,100056.94
2023-07-27T05:59:07.515Z,100001.13
2023-07-27T06:01:38.996Z,99982.63
2023-07-27T06:04:10.561Z,100046.47
2023-07-27T06:06:46.016Z,100021.06
2023-07-27T06:09:17.485Z,100040.91
2023-07-27T06:11:48.928Z,100044.84
2023-07-27T06:14:20.325Z,100009.16
2023-07-27T06:16:51.679Z,99988.78
2023-07-27T06:19:23.070Z,100049.78
2023-07-27T06:21:54.776Z,100018.38
2023-07-27T06:24:26.180Z,100055.53
2023-07-27T06:26:57.634Z,100056.38
2023-07-27T06:29:29.005Z,100051.91
2023-07-27T06:32:02.114Z,100044.66
2023-07-27T06:34:33.479Z,100035.28
2023-07-27T06:37:06.818Z,100065.34
2023-07-27T06:39:38.253Z,99993.31
2023-07-27T06:42:09.768Z,100067.16
2023-07-27T06:44:41.143Z,100062.84
2023-07-27T06:47:12.674Z,99995.22
2023-07-27T06:49:44.095Z,99979.16
2023-07-27T06:52:15.473Z,100061.63
2023-07-27T06:54:46.794Z,100001.03
2023-07-27T06:57:18.192Z,100036.53
2023-07-27T06:59:49.730Z,100055.66
2023-07-27T07:02:21.102Z,100041.34
2023-07-27T07:04:52.437Z,100042.84
2023-07-27T07:07:24.462Z,100063.66
2023-07-27T07:09:55.849Z,100050.25
2023-07-27T07:12:27.396Z,100050.56
2023-07-27T07:14:58.785Z,100017.50
2023-07-27T07:17:30.205Z,100052.06
2023-07-27T07:20:01.621Z,100049.63
2023-07-27T07:22:33.737Z,100033.03
2023-07-27T07:25:05.492Z,100036.16
2023-07-27T07:27:36.923Z,99991.53
2023-07-27T07:30:09.177Z,99969.25
2023-07-27T07:32:40.643Z,100013.72
2023-07-27T07:35:13.123Z,99973.88
2023-07-27T07:37:45.187Z,99984.72
2023-07-27T07:40:18.426Z,100027.66
2023-07-27T07:42:49.990Z,99976.88
2023-07-27T07:45:21.373Z,99974.22
2023-07-27T07:47:52.909Z,100005.97
2023-07-27T07:50:25.306Z,100035.16
2023-07-27T07:52:56.912Z,100032.66
2023-07-27T07:55:28.701Z,100019.16
2023-07-27T07:58:00.078Z,100029.00
2023-07-27T08:00:31.448Z,100011.28
2023-07-27T08:03:03.060Z,99997.44
2023-07-27T08:05:34.474Z,100008.78
2023-07-27T08:08:05.994Z,99996.06
2023-07-27T08:10:37.443Z,100001.88
2023-07-27T08:13:08.904Z,99959.81
2023-07-27T08:15:40.396Z,99928.88
2023-07-27T08:18:11.830Z,99941.81
2023-07-27T08:20:43.229Z,99931.78
2023-07-27T08:23:14.568Z,99967.00
2023-07-27T08:25:45.980Z,99950.38
2023-07-27T08:28:17.363Z,99989.59
2023-07-27T08:30:49.674Z,99979.03
2023-07-27T08:33:21.048Z,99997.56
2023-07-27T08:35:53.004Z,99977.69
2023-07-27T08:38:25.675Z,99961.63
2023-07-27T08:40:58.701Z,99968.41
2023-07-27T08:43:30.232Z,99983.03
2023-07-27T08:46:03.488Z,99977.44
2023-07-27T08:48:35.601Z,99967.78
2023-07-27T08:51:07.500Z,99979.53
2023-07-27T08:53:38.943Z,99914.09
2023-07-27T08:56:10.288Z,99975.47
2023-07-27T08:58:42.142Z,99966.72
2023-07-27T09:01:14.766Z,99969.59
2023-07-27T09:03:47.171Z,99965.53
2023-07-27T09:06:36.760Z,99958.25
2023-07-27T09:09:23.725Z,99907.59
2023-07-27T09:11:55.708Z,99957.13
2023-07-27T09:14:27.186Z,99925.22
2023-07-27T09:16:58.821Z,99953.38
2023-07-27T09:19:40.141Z,99960.25
2023-07-27T09:22:14.750Z,99945.19
2023-07-27T09:24:46.214Z,99943.50
2023-07-27T09:27:17.631Z,99911.38
2023-07-27T09:29:57.895Z,99941.81
2023-07-27T09:32:36.489Z,99941.09
2023-07-27T09:35:13.608Z,99932.50
2023-07-27T09:37:47.158Z,99895.25
2023-07-27T09:40:21.325Z,99903.53
2023-07-27T09:42:52.989Z,99894.19
2023-07-27T09:45:24.551Z,99926.28
2023-07-27T09:47:56.133Z,99935.22
2023-07-27T09:50:29.185Z,99866.59
2023-07-27T09:53:02.282Z,99852.41
2023-07-27T09:55:34.016Z,99923.34
2023-07-27T09:58:05.952Z,99919.31
2023-07-27T10:00:37.461Z,99853.41
2023-07-27T10:03:10.642Z,99929.69
2023-07-27T10:05:44.186Z,99858.22
2023-07-27T10:08:17.764Z,99855.91
2023-07-27T10:10:54.548Z,99904.03
2023-07-27T10:13:25.887Z,99883.47
2023-07-27T10:15:58.074Z,99855.31
2023-07-27T10:18:32.943Z,99911.91
2023-07-27T10:21:28.244Z,99906.03
2023-07-27T10:24:01.821Z,99900.06
2023-07-27T10:26:53.320Z,99874.19
2023-07-27T10:29:28.167Z,99883.31
2023-07-27T10:32:07.691Z,99879.97
2023-07-27T10:34:42.457Z,99881.41
2023-07-27T10:37:15.292Z,99836.94
2023-07-27T10:39:53.475Z,99848.13
2023-07-27T10:42:27.671Z,99873.00
2023-07-27T10:44:59.605Z,99815.16
2023-07-27T10:47:39.013Z,99870.97
2023-07-27T10:50:11.119Z,99878.94
2023-07-27T10:52:42.903Z,99861.06
2023-07-27T10:55:14.421Z,99833.88
2023-07-27T10:57:47.826Z,99844.38
2023-07-27T11:00:19.203Z,99798.63
2023-07-27T11:02:51.266Z,99844.03
2023-07-27T11:05:23.442Z,99852.81
2023-07-27T11:08:02.632Z,99845.84
2023-07-27T11:10:34.140Z,99818.84
2023-07-27T11:13:05.654Z,99849.00
2023-07-27T11:15:37.249Z,99839.75
2023-07-27T11:18:08.720Z,99833.44
2023-07-27T11:20:42.333Z,99797.53
2023-07-27T11:23:13.729Z,99765.53
2023-07-27T11:25:45.336Z,99787.25
2023-07-27T11:28:17.476Z,99744.00
2023-07-27T11:30:53.745Z,99798.00
2023-07-27T11:33:33.888Z,99735.63
2023-07-27T11:36:06.114Z,99762.88
2023-07-27T11:38:37.831Z,99797.59
2023-07-27T11:41:41.240Z,99790.63
2023-07-27T11:44:02.006Z,99804.78
2023-07-27T11:46:43.276Z,99733.19
2023-07-27T11:49:16.129Z,99741.25
2023-07-27T11:51:49.069Z,99753.50
2023-07-27T11:54:28.302Z,99726.44
2023-07-27T11:57:03.272Z,99778.81
2023-07-27T11:59:36.059Z,99757.03
2023-07-27T12:02:07.598Z,99745.22
2023-07-27T12:04:39.158Z,99776.75
2023-07-27T12:07:11.808Z,99773.63
2023-07-27T12:09:43.234Z,99775.72
2023-07-27T12:12:15.681Z,99724.16
2023-07-27T12:14:47.197Z,99783.97
2023-07-27T12:22:34.427Z,99778.75
2023-07-27T12:27:40.715Z,99715.66
2023-07-27T12:32:48.562Z,99761.84
2023-07-27T12:37:55.842Z,99761.38
2023-07-27T12:43:01.976Z,99753.69
2023-07-27T12:45:33.412Z,99757.38
2023-07-27T12:48:05.067Z,99688.16
2023-07-27T12:50:36.576Z,99737.56
2023-07-27T12:53:08.905Z,99716.91
2023-07-27T12:55:41.173Z,99741.34
2023-07-27T12:58:12.651Z,99739.09
2023-07-27T13:00:45.480Z,99739.69
2023-07-27T13:03:17.034Z,99728.19
2023-07-27T13:05:48.426Z,99734.00
2023-07-27T13:08:19.784Z,99651.81
2023-07-27T13:10:51.124Z,99714.28
2023-07-27T13:13:22.530Z,99718.16
2023-07-27T13:15:54.417Z,99715.69
2023-07-27T13:18:25.896Z,99680.34
2023-07-27T13:20:57.413Z,99717.31
2023-07-27T13:23:28.772Z,99706.75
2023-07-27T13:26:06.746Z,99706.00
2023-07-27T13:28:38.234Z,99706.81
2023-07-27T13:31:12.354Z,99686.84
2023-07-27T13:33:43.812Z,99703.97
2023-07-27T13:36:15.510Z,99686.03
2023-07-27T13:38:46.972Z,99706.94
2023-07-27T13:41:18.330Z,99701.38
2023-07-27T13:43:50.785Z,99717.50
2023-07-27T13:46:23.418Z,99700.72
2023-07-27T13:48:54.813Z,99704.16
2023-07-27T13:51:26.218Z,99704.16
2023-07-27T13:53:57.605Z,99635.03
2023-07-27T13:56:29.080Z,99701.56
2023-07-27T13:59:00.610Z,99699.63
2023-07-27T14:01:32.285Z,99717.91
2023-07-27T14:04:04.008Z,99668.09
2023-07-27T14:06:35.463Z,99676.75
2023-07-27T14:09:06.897Z,99700.97
2023-07-27T14:11:38.511Z,99662.50
2023-07-27T14:14:10.100Z,99657.63
2023-07-27T14:16:41.623Z,99697.97
2023-07-27T14:19:13.002Z,99698.25
2023-07-27T14:21:44.390Z,99696.06
2023-07-27T14:24:15.997Z,99630.00
2023-07-27T14:26:47.444Z,99687.28
2023-07-27T14:29:18.911Z,99682.78
2023-07-27T14:31:50.404Z,99694.84
2023-07-27T14:34:23.108Z,99653.09
2023-07-27T14:36:55.082Z,99677.44
2023-07-27T14:42:04.395Z,99645.22
2023-07-27T14:44:35.946Z,99648.19
2023-07-27T14:47:09.031Z,99667.25
2023-07-27T14:49:40.559Z,99628.94
2023-07-27T14:52:11.901Z,99675.78
2023-07-27T14:54:43.283Z,99633.25
2023-07-27T14:57:14.789Z,99631.44
2023-07-27T14:59:58.001Z,99677.41
2023-07-27T15:02:45.274Z,99600.78
2023-07-27T15:05:18.981Z,99670.03
2023-07-27T15:07:50.522Z,99668.22
2023-07-27T15:10:31.396Z,99655.75
2023-07-27T15:13:03.733Z,99607.47
2023-07-27T15:15:35.829Z,99646.69
2023-07-27T15:18:10.394Z,99622.63
2023-07-27T15:20:43.194Z,99613.41
2023-07-27T15:23:15.426Z,99657.91
2023-07-27T15:25:55.007Z,99623.78
2023-07-27T15:28:27.266Z,99618.88
2023-07-27T15:30:58.829Z,99615.56
2023-07-27T15:33:30.650Z,99638.06
2023-07-27T15:36:02.210Z,99643.03
2023-07-27T15:38:33.612Z,99628.44
2023-07-27T15:41:05.026Z,99634.38
2023-07-27T15:43:36.462Z,99576.69
2023-07-27T15:46:07.936Z,99626.22
2023-07-27T15:48:39.315Z,99624.16
2023-07-27T15:51:10.900Z,99620.50
2023-07-27T15:53:43.492Z,99625.47
2023-07-27T15:56:15.030Z,99634.94
2023-07-27T15:58:46.398Z,99631.69
2023-07-27T16:01:18.832Z,99582.47
2023-07-27T16:03:50.254Z,99631.50
2023-07-27T16:06:21.711Z,99555.53
2023-07-27T16:08:53.033Z,99554.47
2023-07-27T16:11:24.511Z,99603.75
2023-07-27T16:13:55.895Z,99586.75
2023-07-27T16:16:27.269Z,99622.66
2023-07-27T16:18:58.780Z,99591.06
2023-07-27T16:21:30.532Z,99604.91
2023-07-27T16:24:03.129Z,99596.63
2023-07-27T16:26:34.836Z,99598.78
2023-07-27T16:29:06.759Z,99596.75
2023-07-27T16:31:38.838Z,99602.03
2023-07-27T16:34:10.204Z,99592.97
2023-07-27T16:36:41.666Z,99588.03
2023-07-27T16:39:13.028Z,99596.31
2023-07-27T16:41:44.597Z,99589.66
2023-07-27T16:44:17.095Z,99552.03
2023-07-27T16:46:48.571Z,99580.31
2023-07-27T16:49:20.770Z,99544.06
2023-07-27T16:51:52.230Z,99587.06
2023-07-27T16:54:23.618Z,99522.91
2023-07-27T16:56:55.045Z,99592.13
2023-07-27T16:59:26.752Z,99589.97
2023-07-27T17:01:58.358Z,99575.88
2023-07-27T17:04:29.901Z,99569.13
2023-07-27T17:07:01.262Z,99585.34
2023-07-27T17:09:32.772Z,99566.06
2023-07-27T17:12:05.781Z,99585.25
2023-07-27T17:14:38.961Z,99552.41
2023-07-27T17:17:10.333Z,99588.03
2023-07-27T17:19:41.663Z,99580.00
2023-07-27T17:22:13.073Z,99558.88
2023-07-27T17:24:44.575Z,99548.66
2023-07-27T17:27:16.051Z,99561.53
2023-07-27T17:29:47.732Z,99564.09
2023-07-27T17:32:19.114Z,99583.88
2023-07-27T17:34:50.722Z,99567.72
2023-07-27T17:37:22.101Z,99533.94
2023-07-27T17:39:53.606Z,99560.16
2023-07-27T17:42:25.197Z,99564.22
2023-07-27T17:44:56.637Z,99549.38
2023-07-27T17:47:28.131Z,99554.56
2023-07-27T17:49:59.848Z,99551.22
2023-07-27T17:52:31.353Z,99564.03
2023-07-27T17:55:03.600Z,99548.53
2023-07-27T17:57:35.010Z,99551.97
2023-07-27T18:00:07.158Z,99490.94
2023-07-27T18:02:38.680Z,99527.56
2023-07-27T18:05:10.211Z,99555.22
2023-07-27T18:07:41.858Z,99553.13
2023-07-27T18:10:13.385Z,99562.81
2023-07-27T18:12:44.785Z,99546.44
2023-07-27T18:15:16.365Z,99566.56
2023-07-27T18:17:47.743Z,99539.75
2023-07-27T18:20:19.150Z,99550.00
2023-07-27T18:22:53.391Z,99537.94
2023-07-27T18:25:24.820Z,99542.44
2023-07-27T18:27:56.253Z,99559.00
2023-07-27T18:30:28.009Z,99543.22
2023-07-27T18:32:59.402Z,99507.25
2023-07-27T18:35:30.776Z,99483.06
2023-07-27T18:38:02.128Z,99554.50
2023-07-27T18:40:33.458Z,99545.88
2023-07-27T18:43:05.149Z,99551.25
2023-07-27T18:45:52.902Z,99522.19
2023-07-27T18:48:24.589Z,99541.56
2023-07-27T18:50:56.449Z,99515.69
2023-07-27T18:53:27.941Z,99521.81
2023-07-27T18:55:59.660Z,99540.00
2023-07-27T18:58:30.995Z,99547.78
2023-07-27T19:01:02.708Z,99481.38
2023-07-27T19:03:37.315Z,99527.94
2023-07-27T19:06:10.821Z,99529.00
2023-07-27T19:08:43.008Z,99527.69
2023-07-27T19:11:14.404Z,99527.22
2023-07-27T19:13:46.400Z,99528.56
2023-07-27T19:16:17.964Z,99538.22
2023-07-27T19:18:49.398Z,99536.31
2023-07-27T19:21:20.944Z,99541.28
2023-07-27T19:23:52.421Z,99535.25
2023-07-27T19:26:24.178Z,99462.63
2023-07-27T19:28:55.585Z,99543.66
2023-07-27T19:31:27.112Z,99491.78
2023-07-27T19:33:58.662Z,99506.63
2023-07-27T19:36:30.147Z,99471.53
2023-07-27T19:39:01.695Z,99517.47
2023-07-27T19:41:33.145Z,99478.53
2023-07-27T19:44:04.792Z,99531.34
2023-07-27T19:46:37.875Z,99536.06
2023-07-27T19:49:09.649Z,99545.63
2023-07-27T19:51:41.126Z,99533.28
2023-07-27T19:54:12.574Z,99530.50
2023-07-27T19:56:43.999Z,99515.94
2023-07-27T19:59:15.351Z,99529.34
2023-07-27T20:01:46.703Z,99518.03
2023-07-27T20:04:18.056Z,99519.00
2023-07-27T20:06:49.407Z,99519.56
2023-07-27T20:09:21.348Z,99517.00
2023-07-27T20:11:52.691Z,99500.16
2023-07-27T20:14:35.231Z,99519.19
2023-07-27T20:17:07.479Z,99527.16
2023-07-27T20:19:39.212Z,99483.81
2023-07-27T20:22:10.625Z,99531.09
2023-07-27T20:24:43.760Z,99449.19
2023-07-27T20:27:15.449Z,99486.88
2023-07-27T20:29:46.961Z,99471.38
2023-07-27T20:32:18.404Z,99513.47
2023-07-27T20:34:50.018Z,99507.34
2023-07-27T20:37:21.389Z,99496.16
2023-07-27T20:39:53.015Z,99516.44
2023-07-27T20:42:24.376Z,99496.44
2023-07-27T20:44:55.762Z,99500.44
2023-07-27T20:47:27.817Z,99511.53
2023-07-27T20:49:59.363Z,99479.22
2023-07-27T20:52:30.787Z,99523.31
2023-07-27T20:55:02.187Z,99463.13
2023-07-27T20:57:33.493Z,99440.94
2023-07-27T21:00:06.675Z,99489.25
2023-07-27T21:02:38.150Z,99497.22
2023-07-27T21:05:10.243Z,99496.25
2023-07-27T21:07:41.880Z,99435.03
2023-07-27T21:10:13.722Z,99474.63
2023-07-27T21:12:45.144Z,99512.31
2023-07-27T21:15:16.485Z,99495.94
2023-07-27T21:17:47.891Z,99498.34
2023-07-27T21:20:19.423Z,99460.25
2023-07-27T21:22:50.793Z,99445.72
2023-07-27T21:25:22.150Z,99492.50
2023-07-27T21:27:53.798Z,99496.81
2023-07-27T21:30:27.586Z,99497.38
2023-07-27T21:32:59.032Z,99446.09
2023-07-27T21:35:30.450Z,99423.72
2023-07-27T21:38:01.850Z,99501.97
2023-07-27T21:40:35.584Z,99476.69
2023-07-27T21:43:06.941Z,99423.34
2023-07-27T21:45:38.482Z,99454.03
2023-07-27T21:48:10.044Z,99484.72
2023-07-27T21:50:44.303Z,99434.88
2023-07-27T21:53:16.809Z,99405.53
2023-07-27T21:55:48.440Z,99479.94
2023-07-27T21:58:21.070Z,99474.59
2023-07-27T22:00:52.548Z,99482.88
2023-07-27T22:03:23.935Z,99453.53
2023-07-27T22:05:55.357Z,99475.25
2023-07-27T22:08:27.008Z,99463.38
2023-07-27T22:10:58.399Z,99430.03
2023-07-27T22:13:29.803Z,99456.44
2023-07-27T22:16:01.286Z,99471.72
2023-07-27T22:18:32.779Z,99466.06
2023-07-27T22:21:10.858Z,99400.19
2023-07-27T22:23:42.395Z,99483.19
2023-07-27T22:26:18.171Z,99437.94
2023-07-27T22:28:50.664Z,99465.78
2023-07-27T22:31:22.145Z,99474.38
2023-07-27T22:33:53.716Z,99470.94
2023-07-27T22:36:25.377Z,99468.16
2023-07-27T22:38:56.722Z,99467.75
2023-07-27T22:41:28.109Z,99463.34
2023-07-27T22:43:59.709Z,99460.56
2023-07-27T22:46:31.163Z,99459.81
2023-07-27T22:49:02.673Z,99469.09
2023-07-27T22:51:34.399Z,99479.59
2023-07-27T22:54:06.101Z,99402.06
2023-07-27T22:56:37.508Z,99397.56
2023-07-27T22:59:08.893Z,99446.50
2023-07-27T23:01:40.315Z,99425.66
2023-07-27T23:04:11.696Z,99434.16
2023-07-27T23:06:43.863Z,99437.31
2023-07-27T23:09:15.323Z,99459.41
2023-07-27T23:11:46.875Z,99465.38
2023-07-27T23:14:19.037Z,99452.00
2023-07-27T23:16:50.440Z,99437.19
2023-07-27T23:19:21.849Z,99439.56
2023-07-27T23:21:53.254Z,99441.84
2023-07-27T23:24:24.704Z,99398.72
2023-07-27T23:26:56.115Z,99460.22
2023-07-27T23:29:27.604Z,99452.16
2023-07-27T23:31:58.924Z,99468.72
2023-07-27T23:34:30.273Z,99429.03
2023-07-27T23:37:01.723Z,99424.06
2023-07-27T23:39:33.158Z,99458.59
2023-07-27T23:42:04.847Z,99467.97
2023-07-27T23:44:36.442Z,99451.22
2023-07-27T23:47:07.805Z,99404.75
2023-07-27T23:49:39.404Z,99453.19
2023-07-27T23:52:10.814Z,99451.47
2023-07-27T23:54:42.195Z,99454.06
2023-07-27T23:57:14.145Z,99452.34
2023-07-27T23:59:45.740Z,99449.75
